TimeCET,TemperatureF,Dew PointF,Humidity,Sea Level PressureIn,VisibilityMPH,Wind Direction,Wind SpeedMPH,Gust SpeedMPH,PrecipitationIn,Events,Conditions,WindDirDegrees,DateUTC
12:00 AM,35,28,66,29.93,6,ESE,17.9,,,,Scattered Clouds,110,2014-01-30 23:00:00
12:00 AM,35.6,28.4,75,29.89,6.2,ESE,16.1,26.5,N/A,,Mostly Cloudy,110,2014-01-30 23:00:00
1:00 AM,35,28,66,29.91,6,ESE,15.7,,,,Mostly Cloudy,110,2014-01-31 00:00:00
1:00 AM,35.6,28.4,75,29.86,6.2,ESE,17.3,-,N/A,,Mostly Cloudy,110,2014-01-31 00:00:00
2:00 AM,35,28,68,29.91,9,ESE,15.7,,,,Mostly Cloudy,110,2014-01-31 01:00:00
2:00 AM,35.6,28.4,75,29.86,6.2,ESE,15.0,-,N/A,,Mostly Cloudy,110,2014-01-31 01:00:00
3:00 AM,36,29,67,29.90,9,East,13.4,,,,Mostly Cloudy,90,2014-01-31 02:00:00
3:00 AM,35.6,28.4,75,29.86,6.2,East,12.7,-,N/A,,Mostly Cloudy,100,2014-01-31 02:00:00
4:00 AM,37,29,65,29.91,9,East,11.2,,,,Overcast,90,2014-01-31 03:00:00
4:00 AM,37.4,28.4,70,29.86,6.2,East,10.4,-,N/A,,Overcast,90,2014-01-31 03:00:00
5:00 AM,38,30,63,29.90,9,East,13.4,,,,Overcast,100,2014-01-31 04:00:00
5:00 AM,39.2,30.2,70,29.86,6.2,ESE,13.8,29.9,N/A,,Overcast,120,2014-01-31 04:00:00
6:00 AM,38,30,65,29.89,9,East,15.7,,,,Mostly Cloudy,100,2014-01-31 05:00:00
6:00 AM,37.4,30.2,75,29.86,6.2,East,15.0,-,N/A,,Mostly Cloudy,100,2014-01-31 05:00:00
7:00 AM,38,31,66,29.90,9,East,11.2,,,,Mostly Cloudy,90,2014-01-31 06:00:00
7:00 AM,37.4,30.2,75,29.86,6.2,East,11.5,-,N/A,,Mostly Cloudy,90,2014-01-31 06:00:00
8:00 AM,38,29,61,29.90,9,East,15.7,,,,Scattered Clouds,90,2014-01-31 07:00:00
8:00 AM,37.4,28.4,70,29.86,6.2,East,15.0,-,N/A,,Mostly Cloudy,90,2014-01-31 07:00:00
9:00 AM,37,30,66,29.92,9,East,8.9,,,,Scattered Clouds,90,2014-01-31 08:00:00
9:00 AM,37.4,30.2,75,29.89,6.2,East,9.2,-,N/A,,Mostly Cloudy,100,2014-01-31 08:00:00
10:00 AM,38,30,62,29.95,9,ESE,15.7,,,,Scattered Clouds,110,2014-01-31 09:00:00
10:00 AM,37.4,30.2,75,29.92,6.2,East,16.1,-,N/A,,Mostly Cloudy,100,2014-01-31 09:00:00
11:00 AM,38,30,63,29.94,9,ESE,13.4,,,,Overcast,110,2014-01-31 10:00:00
11:00 AM,37.4,30.2,75,29.89,6.2,ESE,12.7,-,N/A,,Overcast,110,2014-01-31 10:00:00
12:00 PM,40,31,60,29.92,9,SE,15.7,,,,Overcast,140,2014-01-31 11:00:00
12:00 PM,41.0,30.2,65,29.89,6.2,SE,15.0,27.6,N/A,,Overcast,130,2014-01-31 11:00:00
12:03 PM,41.0,30.2,65,29.89,6.2,SE,15.0,27.6,N/A,,Overcast,140,2014-01-31 11:03:00
1:00 PM,40,32,63,29.92,12,SE,13.4,,,,Overcast,140,2014-01-31 12:00:00
1:00 PM,41.0,32.0,70,29.89,6.2,SSE,13.8,24.2,N/A,,Overcast,150,2014-01-31 12:00:00
2:00 PM,39,31,63,29.93,12,East,8.9,,,,Overcast,100,2014-01-31 13:00:00
2:00 PM,39.2,32.0,75,29.89,6.2,East,9.2,-,N/A,,Overcast,90,2014-01-31 13:00:00
3:00 PM,39,31,65,29.94,12,SSE,8.9,,,,Overcast,150,2014-01-31 14:00:00
3:00 PM,39.2,30.2,70,29.92,6.2,SSE,8.1,-,N/A,,Overcast,150,2014-01-31 14:00:00
4:00 PM,38,30,64,29.97,12,East,4.5,,,,Overcast,100,2014-01-31 15:00:00
4:00 PM,37.4,30.2,75,29.92,6.2,Variable,5.8,16.1,N/A,,Overcast,0,2014-01-31 15:00:00
5:00 PM,38,31,66,29.96,9,SE,4.5,,,,Overcast,130,2014-01-31 16:00:00
5:00 PM,37.4,30.2,75,29.92,6.2,SE,6.9,-,N/A,,Overcast,140,2014-01-31 16:00:00
6:00 PM,36,30,70,29.98,9,NNE,2.2,,,,Overcast,30,2014-01-31 17:00:00
6:00 PM,35.6,30.2,81,29.95,6.2,Variable,2.3,-,N/A,,Overcast,0,2014-01-31 17:00:00
7:00 PM,36,30,72,29.99,9,ENE,4.5,,,,Overcast,70,2014-01-31 18:00:00
7:00 PM,35.6,30.2,81,29.95,6.2,NE,4.6,-,N/A,,Overcast,50,2014-01-31 18:00:00
8:00 PM,37,30,68,29.99,9,ESE,4.5,,,,Overcast,120,2014-01-31 19:00:00
8:00 PM,37.4,30.2,75,29.95,6.2,East,4.6,-,N/A,,Overcast,100,2014-01-31 19:00:00
9:00 PM,36,30,70,29.99,9,ESE,2.2,,,,Overcast,120,2014-01-31 20:00:00
9:00 PM,35.6,30.2,81,29.95,6.2,ESE,3.5,-,N/A,,Overcast,120,2014-01-31 20:00:00
10:00 PM,36,29,68,29.99,9,ESE,8.9,,,,Overcast,120,2014-01-31 21:00:00
10:00 PM,35.6,30.2,81,29.95,6.2,ESE,6.9,-,N/A,,Overcast,110,2014-01-31 21:00:00
11:00 PM,37,30,67,29.98,9,SE,6.7,,,,Overcast,130,2014-01-31 22:00:00
11:00 PM,37.4,30.2,75,29.95,6.2,SE,5.8,-,N/A,,Overcast,140,2014-01-31 22:00:00